Time;durP1;ratioP1;P1;durP2;ratioP2;P2;SDS_P1;SDS_P2;PMS_P1;PMS_P2;Temp;Humidity;BMP_temperature;BMP_pressure;BME280_temperature;BME280_humidity;BME280_pressure;Samples;Min_cycle;Max_cycle;Signal;HPM_P1;HPM_P2
2022/06/07 00:00:30;;;;;;;0.30;0.23;;;17.90;99.90;;;;;;4982702;28;20532;-85
2022/06/07 00:02:58;;;;;;;0.30;0.20;;;17.80;99.90;;;;;;4981739;28;20468;-84
2022/06/07 00:05:25;;;;;;;0.30;0.20;;;17.90;99.90;;;;;;4978099;28;20515;-84
2022/06/07 00:07:54;;;;;;;0.37;0.30;;;18.00;99.90;;;;;;4984900;28;20465;-84
2022/06/07 00:10:21;;;;;;;0.30;0.20;;;18.00;99.90;;;;;;4983222;28;20486;-84
2022/06/07 00:12:48;;;;;;;0.30;0.20;;;18.10;99.90;;;;;;4998878;28;20468;-84
2022/06/07 00:15:16;;;;;;;0.30;0.23;;;18.10;99.90;;;;;;4986169;28;20546;-85
2022/06/07 00:17:43;;;;;;;0.30;0.23;;;18.10;99.90;;;;;;4991708;28;20451;-84
2022/06/07 00:20:10;;;;;;;0.30;0.20;;;18.20;99.90;;;;;;4975599;28;20470;-84
2022/06/07 00:22:38;;;;;;;0.30;0.20;;;18.10;99.90;;;;;;4974764;28;20971;-84
2022/06/07 00:25:09;;;;;;;0.30;0.20;;;18.10;99.90;;;;;;4969405;28;20465;-85
2022/06/07 00:27:36;;;;;;;0.30;0.23;;;18.00;99.90;;;;;;4981660;28;20568;-84
2022/06/07 00:30:06;;;;;;;0.30;0.20;;;18.00;99.90;;;;;;4974183;28;20957;-85
2022/06/07 00:32:34;;;;;;;0.30;0.20;;;18.00;99.90;;;;;;4971246;28;20496;-84
2022/06/07 00:35:01;;;;;;;0.30;0.20;;;17.90;99.90;;;;;;4980924;28;20908;-84
2022/06/07 00:37:28;;;;;;;0.30;0.20;;;17.80;99.90;;;;;;4981218;28;20452;-85
2022/06/07 00:39:55;;;;;;;0.30;0.20;;;17.70;99.90;;;;;;4972300;28;20499;-85
2022/06/07 00:42:24;;;;;;;0.30;0.20;;;17.70;99.90;;;;;;4978712;28;20467;-84
2022/06/07 00:44:51;;;;;;;0.30;0.20;;;17.70;99.90;;;;;;4971319;28;20872;-85
2022/06/07 00:47:20;;;;;;;0.30;0.20;;;17.60;99.90;;;;;;4976687;28;20483;-84
2022/06/07 00:49:51;;;;;;;0.30;0.20;;;17.60;99.90;;;;;;4978761;28;20471;-84
2022/06/07 00:52:20;;;;;;;0.30;0.20;;;17.70;99.90;;;;;;4981596;28;20572;-85
2022/06/07 00:54:48;;;;;;;0.30;0.20;;;17.70;99.90;;;;;;4979783;28;20871;-84
2022/06/07 00:57:15;;;;;;;0.30;0.20;;;17.50;99.90;;;;;;4978818;28;20511;-86
2022/06/07 00:59:43;;;;;;;0.30;0.20;;;17.50;99.90;;;;;;4978249;28;20519;-85
2022/06/07 01:02:10;;;;;;;0.30;0.30;;;17.60;99.90;;;;;;4972836;28;20545;-84
2022/06/07 01:04:37;;;;;;;0.30;0.20;;;17.70;99.90;;;;;;4983623;28;20844;-84
2022/06/07 01:12:36;;;;;;;0.30;0.20;;;17.90;99.90;;;;;;4940391;28;20524;-85
2022/06/07 01:15:06;;;;;;;0.30;0.20;;;17.80;99.90;;;;;;4975200;28;20572;-85
2022/06/07 01:17:33;;;;;;;0.30;0.20;;;17.70;99.90;;;;;;4975173;28;20479;-85
2022/06/07 01:20:00;;;;;;;0.50;0.50;;;17.60;99.90;;;;;;4978149;28;20463;-85
2022/06/07 01:22:28;;;;;;;0.30;0.20;;;17.50;99.90;;;;;;4973150;28;20526;-84
2022/06/07 01:24:55;;;;;;;0.30;0.20;;;17.50;99.90;;;;;;4978647;28;20892;-85
2022/06/07 01:27:22;;;;;;;0.30;0.20;;;17.40;99.90;;;;;;4980553;28;20529;-86
2022/06/07 01:29:50;;;;;;;0.30;0.20;;;17.30;99.90;;;;;;4978306;28;20480;-85
2022/06/07 01:32:18;;;;;;;0.30;0.20;;;17.40;99.90;;;;;;4972088;28;20986;-86
2022/06/07 01:34:46;;;;;;;0.30;0.20;;;17.30;99.90;;;;;;4971947;28;20463;-85
2022/06/07 01:37:15;;;;;;;0.30;0.20;;;17.30;99.90;;;;;;4981490;28;20520;-85
2022/06/07 01:42:29;;;;;;;0.30;0.20;;;17.20;99.90;;;;;;4980313;28;20486;-85
2022/06/07 01:44:57;;;;;;;0.30;0.20;;;17.10;99.90;;;;;;4979090;28;20463;-87
2022/06/07 01:47:26;;;;;;;0.30;0.20;;;17.20;99.90;;;;;;4979510;28;20538;-84
2022/06/07 01:49:53;;;;;;;0.30;0.20;;;17.20;99.90;;;;;;4968647;28;21046;-84
2022/06/07 01:52:23;;;;;;;0.30;0.20;;;17.10;99.90;;;;;;4980155;28;20983;-86
2022/06/07 01:54:52;;;;;;;0.30;0.20;;;17.10;99.90;;;;;;4977512;28;20480;-86
2022/06/07 01:57:20;;;;;;;0.30;0.20;;;17.20;99.90;;;;;;4978176;28;20560;-85
2022/06/07 01:59:48;;;;;;;0.30;0.20;;;17.20;99.90;;;;;;4971293;28;20461;-85
2022/06/07 02:02:15;;;;;;;0.30;0.20;;;17.00;99.90;;;;;;4977342;28;20468;-85
2022/06/07 02:04:43;;;;;;;0.63;0.30;;;16.90;99.90;;;;;;4971923;28;20467;-85
2022/06/07 02:07:12;;;;;;;0.30;0.20;;;16.90;99.90;;;;;;4980338;28;21014;-85
2022/06/07 02:09:40;;;;;;;0.30;0.20;;;16.90;99.90;;;;;;4978396;28;20564;-84
2022/06/07 02:12:08;;;;;;;0.30;0.20;;;17.00;99.90;;;;;;4976203;28;20526;-85
2022/06/07 02:14:36;;;;;;;0.30;0.30;;;16.90;99.90;;;;;;4979419;28;20801;-85
2022/06/07 02:17:03;;;;;;;1.13;0.27;;;16.90;99.90;;;;;;4980057;28;20608;-85
2022/06/07 02:19:30;;;;;;;0.30;0.20;;;16.90;99.90;;;;;;4977289;28;20799;-85
2022/06/07 02:21:58;;;;;;;0.30;0.20;;;16.90;99.90;;;;;;4977980;28;20540;-86
2022/06/07 02:24:25;;;;;;;0.30;0.20;;;16.90;99.90;;;;;;4972577;28;20460;-85
2022/06/07 02:26:55;;;;;;;0.70;0.30;;;16.90;99.90;;;;;;4969003;28;20477;-85
2022/06/07 02:29:27;;;;;;;0.30;0.20;;;16.90;99.90;;;;;;4979215;28;20474;-85
2022/06/07 02:31:58;;;;;;;0.40;0.30;;;16.90;99.90;;;;;;4976057;28;20467;-85
2022/06/07 02:34:26;;;;;;;0.30;0.20;;;16.90;99.90;;;;;;4977028;28;20547;-85
2022/06/07 02:36:59;;;;;;;0.30;0.23;;;16.90;99.90;;;;;;4977332;28;20495;-86
2022/06/07 02:39:27;;;;;;;0.30;0.20;;;16.90;99.90;;;;;;4972882;28;20452;-84
2022/06/07 02:41:55;;;;;;;0.30;0.20;;;17.00;99.90;;;;;;4973509;28;20613;-85
2022/06/07 02:44:23;;;;;;;0.30;0.20;;;16.90;99.90;;;;;;4977343;28;20498;-84
2022/06/07 02:46:50;;;;;;;0.30;0.20;;;16.90;99.90;;;;;;4974105;28;21055;-86
2022/06/07 02:49:17;;;;;;;0.30;0.20;;;16.90;99.90;;;;;;4971815;28;21047;-86
2022/06/07 02:51:44;;;;;;;0.30;0.20;;;16.90;99.90;;;;;;4968353;28;21094;-85
2022/06/07 02:54:11;;;;;;;0.40;0.30;;;16.80;99.90;;;;;;4967712;28;20504;-84
2022/06/07 02:56:38;;;;;;;0.30;0.20;;;16.90;99.90;;;;;;4969748;28;20504;-85
2022/06/07 02:59:05;;;;;;;0.30;0.20;;;16.80;99.90;;;;;;4976027;28;20834;-85
2022/06/07 03:01:34;;;;;;;0.40;0.30;;;16.90;99.90;;;;;;4968124;28;20546;-85
2022/06/07 03:04:01;;;;;;;0.30;0.20;;;16.90;99.90;;;;;;4976820;28;20452;-84
2022/06/07 03:06:28;;;;;;;0.30;0.20;;;17.00;99.90;;;;;;4974418;28;20544;-85
2022/06/07 03:08:55;;;;;;;0.30;0.20;;;16.90;99.90;;;;;;4981997;28;20995;-84
2022/06/07 03:11:22;;;;;;;0.40;0.30;;;17.00;99.90;;;;;;4979242;28;20471;-86
2022/06/07 03:13:49;;;;;;;0.57;0.20;;;17.00;99.90;;;;;;4977709;28;20471;-85
2022/06/07 03:16:16;;;;;;;0.30;0.20;;;16.90;99.90;;;;;;4982458;28;20490;-86
2022/06/07 03:18:45;;;;;;;0.30;0.20;;;17.00;99.90;;;;;;4984280;28;20948;-85
2022/06/07 03:21:12;;;;;;;0.30;0.20;;;16.90;99.90;;;;;;4978766;28;20467;-85
2022/06/07 03:23:39;;;;;;;0.70;0.40;;;16.90;99.90;;;;;;4985244;28;20463;-85
2022/06/07 03:26:08;;;;;;;0.30;0.20;;;17.00;99.90;;;;;;4981595;28;20956;-85
2022/06/07 03:28:35;;;;;;;0.40;0.40;;;16.90;99.90;;;;;;4982203;28;20498;-85
2022/06/07 03:31:07;;;;;;;0.30;0.20;;;17.00;99.90;;;;;;4980509;28;21039;-85
2022/06/07 03:33:35;;;;;;;0.30;0.20;;;17.00;99.90;;;;;;4985270;28;20471;-86
2022/06/07 03:36:14;;;;;;;0.30;0.20;;;17.00;99.90;;;;;;4977763;28;20537;-85
2022/06/07 03:38:42;;;;;;;0.30;0.20;;;17.00;99.90;;;;;;4980159;28;20474;-87
2022/06/07 03:41:10;;;;;;;0.30;0.20;;;17.00;99.90;;;;;;4975744;28;20475;-85
2022/06/07 03:43:37;;;;;;;0.30;0.20;;;17.00;99.90;;;;;;4977409;28;20548;-86
2022/06/07 03:46:10;;;;;;;0.30;0.30;;;17.20;99.90;;;;;;4978207;28;21347;-86
2022/06/07 03:48:37;;;;;;;0.30;0.20;;;17.30;99.90;;;;;;4981882;28;20489;-87
2022/06/07 03:51:06;;;;;;;0.30;0.20;;;17.20;99.90;;;;;;4977319;28;20476;-87
2022/06/07 03:53:35;;;;;;;0.30;0.20;;;17.20;99.90;;;;;;4984934;28;20553;-87
2022/06/07 03:56:02;;;;;;;0.30;0.20;;;17.20;99.90;;;;;;4981641;28;20556;-86
2022/06/07 03:58:30;;;;;;;0.30;0.20;;;17.20;99.90;;;;;;4976434;28;20495;-87
2022/06/07 04:00:58;;;;;;;0.30;0.20;;;17.20;99.90;;;;;;4973667;28;20493;-85
2022/06/07 04:03:26;;;;;;;0.30;0.20;;;17.20;99.90;;;;;;4974696;28;20526;-85
2022/06/07 04:05:53;;;;;;;0.30;0.20;;;17.30;99.90;;;;;;4975081;28;20482;-87
2022/06/07 04:08:21;;;;;;;0.30;0.20;;;17.20;99.90;;;;;;4977392;28;20529;-86
2022/06/07 04:10:52;;;;;;;0.40;0.30;;;17.10;99.90;;;;;;4979974;28;21150;-86
2022/06/07 04:13:21;;;;;;;0.30;0.20;;;17.10;99.90;;;;;;4978808;28;20475;-86
2022/06/07 04:15:48;;;;;;;0.30;0.20;;;17.10;99.90;;;;;;4976196;28;20535;-86
2022/06/07 04:18:16;;;;;;;0.30;0.20;;;17.20;99.90;;;;;;4974620;28;20487;-86
2022/06/07 04:20:43;;;;;;;0.30;0.20;;;17.10;99.90;;;;;;4974947;28;20490;-86
2022/06/07 04:23:15;;;;;;;0.30;0.20;;;17.10;99.90;;;;;;4975664;28;20471;-86
2022/06/07 04:25:43;;;;;;;0.60;0.60;;;17.10;99.90;;;;;;4974867;28;20863;-86
2022/06/07 04:28:12;;;;;;;0.40;0.33;;;17.00;99.90;;;;;;4976150;28;20469;-87
2022/06/07 04:30:42;;;;;;;0.30;0.20;;;17.00;99.90;;;;;;4972147;28;20955;-86
2022/06/07 04:33:09;;;;;;;0.30;0.20;;;17.00;99.90;;;;;;4977573;28;20938;-85
2022/06/07 04:35:36;;;;;;;0.30;0.30;;;17.10;99.90;;;;;;4974507;28;20510;-88
2022/06/07 04:38:03;;;;;;;0.30;0.20;;;17.20;99.90;;;;;;4973749;28;20552;-86
2022/06/07 04:40:30;;;;;;;0.30;0.20;;;17.10;99.90;;;;;;4979560;28;20873;-86
2022/06/07 04:42:57;;;;;;;0.30;0.20;;;17.10;99.90;;;;;;4978160;28;20487;-86
2022/06/07 04:45:26;;;;;;;0.30;0.20;;;17.10;99.90;;;;;;4975687;28;21017;-87
2022/06/07 04:47:53;;;;;;;0.40;0.30;;;17.10;99.90;;;;;;4978149;28;20470;-86
2022/06/07 04:50:20;;;;;;;0.30;0.20;;;17.10;99.90;;;;;;4979596;28;20475;-86
2022/06/07 04:52:48;;;;;;;0.30;0.20;;;17.20;99.90;;;;;;4979704;28;20467;-86
2022/06/07 04:55:16;;;;;;;0.30;0.20;;;17.20;99.90;;;;;;4972971;28;20456;-86
2022/06/07 04:57:44;;;;;;;0.40;0.20;;;17.20;99.90;;;;;;4981384;28;20556;-86
2022/06/07 05:00:15;;;;;;;0.30;0.20;;;17.20;99.90;;;;;;4971352;28;21199;-87
2022/06/07 05:02:44;;;;;;;0.30;0.20;;;17.20;99.90;;;;;;4979947;28;20815;-86
2022/06/07 05:05:11;;;;;;;0.30;0.30;;;17.20;99.90;;;;;;4978709;28;20495;-89
2022/06/07 05:07:39;;;;;;;0.30;0.20;;;17.30;99.90;;;;;;4988476;28;20455;-87
2022/06/07 05:10:09;;;;;;;0.30;0.20;;;17.30;99.90;;;;;;5005999;28;20484;-88
2022/06/07 05:12:36;;;;;;;0.30;0.20;;;17.30;99.90;;;;;;4992619;28;20539;-86
2022/06/07 05:15:05;;;;;;;0.40;0.30;;;17.30;99.90;;;;;;4989771;28;20456;-85
2022/06/07 05:17:32;;;;;;;0.30;0.20;;;17.10;99.90;;;;;;4981471;28;21013;-88
2022/06/07 05:20:00;;;;;;;0.30;0.20;;;17.10;99.90;;;;;;4973233;28;20476;-86
2022/06/07 05:22:28;;;;;;;0.30;0.20;;;17.10;99.90;;;;;;4969994;28;20540;-86
2022/06/07 05:24:55;;;;;;;0.30;0.20;;;17.10;99.90;;;;;;4972126;28;20514;-86
2022/06/07 05:27:25;;;;;;;0.30;0.20;;;17.10;99.90;;;;;;4970717;28;21051;-87
2022/06/07 05:29:54;;;;;;;0.40;0.23;;;17.20;99.90;;;;;;4977731;28;20530;-86
2022/06/07 05:32:21;;;;;;;0.30;0.20;;;17.20;99.90;;;;;;4974071;28;20540;-87
2022/06/07 05:34:48;;;;;;;0.30;0.20;;;17.30;99.90;;;;;;4973036;28;20555;-86
2022/06/07 05:37:19;;;;;;;0.30;0.20;;;17.40;99.90;;;;;;4970781;28;20555;-86
2022/06/07 05:39:47;;;;;;;0.30;0.20;;;17.40;99.90;;;;;;4981755;28;20835;-88
2022/06/07 05:42:16;;;;;;;0.30;0.20;;;17.40;99.90;;;;;;4974135;28;20557;-86
2022/06/07 05:44:44;;;;;;;0.30;0.20;;;17.50;99.90;;;;;;4971975;28;20455;-87
2022/06/07 05:47:11;;;;;;;0.30;0.20;;;17.40;99.90;;;;;;4974104;28;20465;-88
2022/06/07 05:49:38;;;;;;;0.30;0.20;;;17.20;99.90;;;;;;4973068;28;20498;-86
2022/06/07 05:52:07;;;;;;;0.30;0.20;;;17.20;99.90;;;;;;4982432;28;20469;-86
2022/06/07 05:54:38;;;;;;;0.37;0.30;;;17.30;99.90;;;;;;4987398;28;20505;-87
2022/06/07 05:57:06;;;;;;;0.50;0.30;;;17.40;99.90;;;;;;4976951;28;20495;-87
2022/06/07 05:59:34;;;;;;;0.30;0.20;;;17.40;99.90;;;;;;4984971;28;20566;-87
2022/06/07 06:02:01;;;;;;;0.30;0.30;;;17.30;99.90;;;;;;4985326;28;20451;-86
2022/06/07 06:04:28;;;;;;;0.30;0.20;;;17.20;99.90;;;;;;4969242;28;20483;-84
2022/06/07 06:06:56;;;;;;;0.30;0.20;;;17.40;99.90;;;;;;4971029;28;20500;-87
2022/06/07 06:12:10;;;;;;;0.80;0.43;;;17.10;99.90;;;;;;4985538;28;20450;-86
2022/06/07 06:14:37;;;;;;;0.30;0.20;;;17.20;99.90;;;;;;4971582;28;20463;-86
2022/06/07 06:17:04;;;;;;;0.30;0.20;;;17.30;99.90;;;;;;4974847;28;21062;-86
2022/06/07 06:19:32;;;;;;;0.30;0.30;;;17.30;99.90;;;;;;4970143;28;21150;-86
2022/06/07 06:21:59;;;;;;;0.30;0.20;;;17.20;99.90;;;;;;4976402;28;20758;-86
2022/06/07 06:24:26;;;;;;;0.30;0.20;;;17.10;99.90;;;;;;4971946;28;21256;-86
2022/06/07 06:26:54;;;;;;;0.40;0.20;;;17.10;99.90;;;;;;4975309;28;20492;-87
2022/06/07 06:29:23;;;;;;;0.30;0.20;;;17.10;99.90;;;;;;4975833;28;20474;-86
2022/06/07 06:31:51;;;;;;;0.30;0.20;;;17.20;99.90;;;;;;4969622;28;20540;-86
2022/06/07 06:34:19;;;;;;;0.43;0.30;;;17.20;99.90;;;;;;4974446;28;20869;-88
2022/06/07 06:36:47;;;;;;;0.30;0.20;;;17.20;99.90;;;;;;4965816;28;20452;-85
2022/06/07 06:39:15;;;;;;;0.30;0.20;;;17.40;99.90;;;;;;4976270;28;20547;-84
2022/06/07 06:41:45;;;;;;;0.40;0.30;;;17.60;99.90;;;;;;4975188;28;20460;-84
2022/06/07 06:44:12;;;;;;;0.40;0.30;;;17.50;99.90;;;;;;4973969;28;20461;-87
2022/06/07 06:46:43;;;;;;;0.30;0.20;;;17.40;99.90;;;;;;4970950;28;20534;-88
2022/06/07 06:49:13;;;;;;;0.80;0.40;;;17.30;99.90;;;;;;4978370;28;21486;-86
2022/06/07 06:51:42;;;;;;;0.30;0.20;;;17.30;99.90;;;;;;4981736;28;20454;-87
2022/06/07 06:54:12;;;;;;;0.30;0.20;;;17.30;99.90;;;;;;4982326;28;20491;-86
2022/06/07 06:56:40;;;;;;;0.30;0.20;;;17.40;99.90;;;;;;4978862;28;20496;-86
2022/06/07 06:59:08;;;;;;;0.40;0.30;;;17.30;99.90;;;;;;4979704;28;20490;-88
2022/06/07 07:01:38;;;;;;;0.30;0.20;;;17.30;99.90;;;;;;4977741;28;20463;-86
2022/06/07 07:04:09;;;;;;;0.40;0.30;;;17.40;99.90;;;;;;4979978;28;21246;-86
2022/06/07 07:06:37;;;;;;;0.30;0.20;;;17.50;99.90;;;;;;4972325;28;20457;-86
2022/06/07 07:09:05;;;;;;;0.30;0.20;;;17.50;99.90;;;;;;4982291;28;20485;-86
2022/06/07 07:11:35;;;;;;;0.40;0.30;;;17.60;99.90;;;;;;4973066;28;20876;-87
2022/06/07 07:14:03;;;;;;;0.37;0.27;;;17.70;99.90;;;;;;4979417;28;20460;-88
2022/06/07 07:16:32;;;;;;;0.30;0.20;;;17.70;99.90;;;;;;4980861;28;20451;-86
2022/06/07 07:18:59;;;;;;;0.73;0.30;;;17.80;99.90;;;;;;4974346;28;20484;-86
2022/06/07 07:21:29;;;;;;;0.30;0.20;;;17.80;99.90;;;;;;4977315;28;20464;-86
2022/06/07 07:23:58;;;;;;;0.30;0.20;;;17.70;99.90;;;;;;4976345;28;20460;-87
2022/06/07 07:26:28;;;;;;;0.30;0.20;;;17.80;99.90;;;;;;4975491;28;20510;-87
2022/06/07 07:28:55;;;;;;;0.30;0.30;;;18.00;99.90;;;;;;4970347;28;20450;-86
2022/06/07 07:31:24;;;;;;;0.30;0.20;;;18.00;99.90;;;;;;4980187;28;21011;-85
2022/06/07 07:33:52;;;;;;;0.30;0.20;;;18.10;99.90;;;;;;4975220;28;21158;-87
2022/06/07 07:36:20;;;;;;;0.30;0.20;;;17.90;99.90;;;;;;4979509;28;20473;-86
2022/06/07 07:38:49;;;;;;;0.30;0.20;;;17.80;99.90;;;;;;4975495;28;21049;-86
2022/06/07 07:41:20;;;;;;;0.30;0.30;;;17.80;99.90;;;;;;4977091;28;20453;-87
2022/06/07 07:43:47;;;;;;;0.30;0.20;;;17.90;99.90;;;;;;4976321;28;20486;-86
2022/06/07 07:46:14;;;;;;;0.30;0.20;;;17.90;99.90;;;;;;4975836;28;20475;-87
2022/06/07 07:48:42;;;;;;;0.30;0.20;;;18.00;99.90;;;;;;4974093;28;20521;-87
2022/06/07 07:51:19;;;;;;;0.30;0.20;;;17.90;99.90;;;;;;4978505;28;21287;-86
2022/06/07 07:53:48;;;;;;;0.30;0.20;;;18.00;99.90;;;;;;4976816;28;20545;-87
2022/06/07 07:56:16;;;;;;;0.30;0.20;;;17.80;99.90;;;;;;4974946;28;20558;-87
2022/06/07 07:58:44;;;;;;;0.40;0.33;;;17.70;99.90;;;;;;4972930;28;20499;-86
2022/06/07 08:01:14;;;;;;;0.30;0.20;;;17.80;99.90;;;;;;4970654;28;20992;-86
2022/06/07 08:03:41;;;;;;;0.30;0.20;;;17.90;99.90;;;;;;4973153;28;20476;-88
2022/06/07 08:06:10;;;;;;;0.30;0.20;;;18.00;99.90;;;;;;4974858;28;20459;-86
2022/06/07 08:08:37;;;;;;;0.30;0.20;;;18.00;99.90;;;;;;4979629;28;20972;-86
2022/06/07 08:11:06;;;;;;;0.30;0.30;;;18.00;99.90;;;;;;4984422;28;20447;-87
2022/06/07 08:13:34;;;;;;;0.30;0.20;;;18.00;99.90;;;;;;4992036;28;20460;-86
2022/06/07 08:16:01;;;;;;;0.40;0.20;;;17.90;99.90;;;;;;4992710;28;20452;-85
2022/06/07 08:18:28;;;;;;;0.30;0.30;;;17.90;99.90;;;;;;4990785;28;20530;-84
2022/06/07 08:20:59;;;;;;;0.30;0.20;;;17.90;99.90;;;;;;4988365;28;21036;-88
2022/06/07 08:23:28;;;;;;;0.40;0.40;;;17.90;99.90;;;;;;4983238;28;20977;-86
2022/06/07 08:25:55;;;;;;;0.30;0.20;;;17.80;99.90;;;;;;4976122;28;20459;-88
2022/06/07 08:28:23;;;;;;;0.30;0.20;;;18.00;99.90;;;;;;4979969;28;20471;-86
2022/06/07 08:30:50;;;;;;;0.30;0.20;;;18.30;99.90;;;;;;4975456;28;20479;-86
2022/06/07 08:38:52;;;;;;;0.30;0.20;;;18.00;99.90;;;;;;4982282;28;20633;-86
2022/06/07 08:41:23;;;;;;;0.30;0.20;;;17.50;99.90;;;;;;4984868;28;20525;-86
2022/06/07 08:43:52;;;;;;;0.33;0.23;;;17.40;99.90;;;;;;4974746;28;20451;-86
2022/06/07 08:46:24;;;;;;;0.30;0.20;;;17.40;99.90;;;;;;4965680;28;20459;-85
2022/06/07 08:48:52;;;;;;;0.30;0.20;;;17.60;99.90;;;;;;4976488;28;20544;-86
2022/06/07 08:51:24;;;;;;;0.40;0.40;;;17.70;99.90;;;;;;4974206;28;21107;-86
2022/06/07 08:53:55;;;;;;;0.30;0.20;;;17.80;99.90;;;;;;4974023;28;20474;-86
2022/06/07 08:56:26;;;;;;;0.30;0.20;;;17.90;99.90;;;;;;4979071;28;20495;-87
2022/06/07 08:58:59;;;;;;;0.30;0.20;;;17.80;99.90;;;;;;4972563;28;20487;-86
2022/06/07 09:01:34;;;;;;;0.30;0.20;;;18.00;99.90;;;;;;4981495;28;20462;-85
2022/06/07 09:04:12;;;;;;;2.53;1.03;;;17.80;99.90;;;;;;4975248;28;20665;-85
2022/06/07 09:06:41;;;;;;;0.30;0.20;;;17.70;99.90;;;;;;4971862;28;21046;-86
2022/06/07 09:09:10;;;;;;;0.30;0.20;;;17.90;99.90;;;;;;4976680;28;20471;-87
2022/06/07 09:14:30;;;;;;;0.40;0.30;;;18.00;99.90;;;;;;4973009;28;21168;-85
2022/06/07 09:16:59;;;;;;;0.87;0.40;;;18.00;99.90;;;;;;4978615;28;20542;-85
2022/06/07 09:19:28;;;;;;;0.30;0.20;;;18.10;99.90;;;;;;4974521;28;20504;-86
2022/06/07 09:21:59;;;;;;;0.30;0.20;;;18.50;99.90;;;;;;4976038;28;20460;-86
2022/06/07 09:24:32;;;;;;;0.50;0.30;;;18.80;99.90;;;;;;4970012;28;20478;-86
2022/06/07 09:27:16;;;;;;;0.60;0.60;;;18.90;99.90;;;;;;4976327;28;20455;-86
2022/06/07 09:29:52;;;;;;;0.30;0.20;;;18.70;99.90;;;;;;4971529;28;20471;-87
2022/06/07 09:32:22;;;;;;;0.30;0.20;;;18.60;99.90;;;;;;4978319;28;20456;-86
2022/06/07 09:34:54;;;;;;;0.30;0.20;;;18.40;99.90;;;;;;4977448;28;20460;-87
2022/06/07 09:37:28;;;;;;;0.30;0.30;;;18.50;99.90;;;;;;4977799;28;20731;-86
2022/06/07 09:40:02;;;;;;;0.30;0.20;;;18.70;99.90;;;;;;4975746;28;20575;-86
2022/06/07 09:42:31;;;;;;;0.30;0.20;;;18.70;99.90;;;;;;4975635;28;20883;-86
2022/06/07 09:45:03;;;;;;;0.30;0.20;;;18.90;99.90;;;;;;4969579;28;20945;-86
2022/06/07 09:47:32;;;;;;;0.30;0.20;;;18.60;99.90;;;;;;4979297;28;20520;-85
2022/06/07 09:50:09;;;;;;;0.30;0.20;;;18.50;99.90;;;;;;4975511;28;20607;-87
2022/06/07 09:52:44;;;;;;;0.30;0.20;;;18.60;99.90;;;;;;4973035;28;20528;-87
2022/06/07 09:55:22;;;;;;;0.30;0.20;;;18.50;99.90;;;;;;4975415;28;20932;-85
2022/06/07 09:57:59;;;;;;;0.30;0.20;;;18.30;99.90;;;;;;4973522;28;21002;-85
2022/06/07 10:00:34;;;;;;;0.30;0.20;;;18.10;99.90;;;;;;4976427;28;20471;-86
2022/06/07 10:03:26;;;;;;;0.30;0.20;;;18.20;99.90;;;;;;4972671;28;21086;-85
2022/06/07 10:06:08;;;;;;;0.30;0.20;;;18.10;99.90;;;;;;4979016;28;20479;-86
2022/06/07 10:09:09;;;;;;;0.30;0.20;;;18.20;99.90;;;;;;4977042;28;20538;-87
2022/06/07 10:11:41;;;;;;;0.30;0.20;;;18.00;99.90;;;;;;4975807;28;20498;-86
2022/06/07 10:14:23;;;;;;;0.30;0.20;;;18.10;99.90;;;;;;4972279;28;20470;-85
2022/06/07 10:17:03;;;;;;;0.30;0.20;;;18.20;99.90;;;;;;4978796;28;20521;-85
2022/06/07 10:19:46;;;;;;;0.30;0.20;;;18.20;99.90;;;;;;4963371;28;20819;-86
2022/06/07 10:22:29;;;;;;;1.23;0.30;;;18.30;99.90;;;;;;4981255;28;20454;-87
2022/06/07 10:25:09;;;;;;;0.30;0.20;;;18.40;99.90;;;;;;4976187;28;20464;-86
2022/06/07 10:27:55;;;;;;;0.30;0.20;;;18.70;99.90;;;;;;4982590;28;20479;-86
2022/06/07 10:30:29;;;;;;;0.30;0.20;;;19.00;99.90;;;;;;4986412;28;20519;-86
2022/06/07 10:33:31;;;;;;;0.30;0.20;;;19.10;99.90;;;;;;4984608;28;20545;-86
2022/06/07 10:36:08;;;;;;;0.30;0.30;;;19.20;99.90;;;;;;4974545;28;20467;-86
2022/06/07 10:38:44;;;;;;;0.30;0.20;;;19.00;99.90;;;;;;4983332;28;20548;-87
2022/06/07 10:41:22;;;;;;;0.30;0.20;;;18.90;99.90;;;;;;4975016;28;20466;-86
2022/06/07 10:44:05;;;;;;;0.30;0.20;;;18.90;99.90;;;;;;4977642;28;20998;-86
2022/06/07 10:46:35;;;;;;;0.30;0.30;;;19.00;99.90;;;;;;4983626;28;20476;-86
2022/06/07 10:49:13;;;;;;;0.30;0.20;;;18.80;99.90;;;;;;4983344;28;20538;-85
2022/06/07 10:54:32;;;;;;;0.30;0.20;;;18.80;99.90;;;;;;4973933;28;20474;-86
2022/06/07 10:57:13;;;;;;;0.30;0.20;;;18.40;99.90;;;;;;4978695;28;20491;-85
2022/06/07 10:59:42;;;;;;;0.30;0.20;;;18.30;99.90;;;;;;4974070;28;20483;-86
2022/06/07 11:02:20;;;;;;;0.30;0.20;;;18.40;99.90;;;;;;4974751;28;20488;-86
2022/06/07 11:10:35;;;;;;;0.30;0.20;;;19.00;99.90;;;;;;4972249;28;20966;-88
2022/06/07 11:13:16;;;;;;;0.50;0.37;;;19.20;99.90;;;;;;4980124;28;20977;-86
2022/06/07 11:15:51;;;;;;;0.30;0.20;;;19.30;99.90;;;;;;4986253;28;20531;-86
2022/06/07 11:18:21;;;;;;;0.30;0.20;;;18.90;99.90;;;;;;4992237;28;20467;-86
2022/06/07 11:21:09;;;;;;;0.30;0.20;;;18.60;99.90;;;;;;4990616;28;20471;-86
2022/06/07 11:23:44;;;;;;;0.30;0.20;;;18.50;99.90;;;;;;4992059;28;20504;-86
2022/06/07 11:26:14;;;;;;;0.30;0.20;;;18.50;99.90;;;;;;4983160;28;20463;-86
2022/06/07 11:28:45;;;;;;;0.30;0.20;;;18.70;99.90;;;;;;4978976;28;20471;-85
2022/06/07 11:31:42;;;;;;;0.30;0.20;;;18.80;99.90;;;;;;4972559;28;20499;-86
2022/06/07 11:34:23;;;;;;;0.30;0.20;;;18.70;99.90;;;;;;4979107;28;20475;-86
2022/06/07 11:36:56;;;;;;;0.30;0.20;;;18.70;99.90;;;;;;4977091;28;20578;-85
2022/06/07 11:39:28;;;;;;;0.30;0.20;;;18.70;99.90;;;;;;4980114;28;20515;-85
2022/06/07 11:41:57;;;;;;;0.30;0.20;;;18.80;99.90;;;;;;4978719;28;20463;-86
2022/06/07 11:44:30;;;;;;;0.30;0.20;;;18.90;99.90;;;;;;4977870;28;20479;-85
2022/06/07 11:47:03;;;;;;;0.30;0.20;;;19.20;99.90;;;;;;4976406;28;20473;-85
2022/06/07 11:50:01;;;;;;;0.30;0.20;;;19.30;99.90;;;;;;4970471;28;20481;-87
2022/06/07 11:52:33;;;;;;;0.30;0.20;;;19.40;99.90;;;;;;4982241;28;21143;-85
2022/06/07 11:55:09;;;;;;;0.30;0.20;;;19.50;99.90;;;;;;4980998;28;20928;-87
2022/06/07 11:57:39;;;;;;;0.30;0.20;;;19.60;99.90;;;;;;4977498;28;20483;-85
2022/06/07 12:00:38;;;;;;;0.30;0.20;;;19.40;99.90;;;;;;4977153;28;20512;-86
2022/06/07 12:03:28;;;;;;;0.30;0.20;;;19.50;99.90;;;;;;4973588;28;20856;-86
2022/06/07 12:06:00;;;;;;;0.30;0.20;;;19.50;99.90;;;;;;4981431;28;20551;-86
2022/06/07 12:08:34;;;;;;;0.57;0.57;;;19.50;99.90;;;;;;4976447;28;20475;-87
2022/06/07 12:11:05;;;;;;;0.30;0.20;;;19.70;99.90;;;;;;4976812;28;20477;-88
2022/06/07 12:13:51;;;;;;;0.30;0.20;;;19.70;99.90;;;;;;4971311;28;20464;-87
2022/06/07 12:16:31;;;;;;;0.30;0.20;;;19.60;99.90;;;;;;4972695;28;20470;-88
2022/06/07 12:18:59;;;;;;;0.30;0.20;;;19.20;99.90;;;;;;4977633;28;20487;-87
2022/06/07 12:21:29;;;;;;;0.30;0.20;;;19.00;99.90;;;;;;4974609;28;20474;-87
2022/06/07 12:24:09;;;;;;;0.30;0.20;;;19.00;99.90;;;;;;4971643;28;20476;-88
2022/06/07 12:26:36;;;;;;;0.30;0.20;;;19.00;99.90;;;;;;4975981;28;20516;-88
2022/06/07 12:29:17;;;;;;;0.30;0.20;;;18.90;99.90;;;;;;4968265;28;21385;-87
2022/06/07 12:31:47;;;;;;;0.30;0.20;;;19.00;99.90;;;;;;4974605;28;20467;-88
2022/06/07 12:34:19;;;;;;;0.30;0.20;;;18.80;99.90;;;;;;4982515;28;20471;-88
2022/06/07 12:36:52;;;;;;;0.30;0.20;;;18.80;99.90;;;;;;4973799;28;20455;-87
2022/06/07 12:39:21;;;;;;;0.30;0.20;;;18.80;99.90;;;;;;4975926;28;20495;-87
2022/06/07 12:41:53;;;;;;;0.30;0.20;;;18.70;99.90;;;;;;4978474;28;20545;-86
2022/06/07 12:44:28;;;;;;;0.30;0.20;;;18.80;99.90;;;;;;4976885;28;20885;-86
2022/06/07 12:46:56;;;;;;;0.30;0.20;;;18.90;99.90;;;;;;4977589;28;20470;-86
2022/06/07 12:49:26;;;;;;;0.30;0.20;;;19.00;99.90;;;;;;4971258;28;20477;-88
2022/06/07 12:52:01;;;;;;;0.30;0.20;;;19.30;99.90;;;;;;4976972;28;20475;-89
2022/06/07 12:54:33;;;;;;;0.30;0.20;;;19.50;99.90;;;;;;4972960;28;20471;-88
2022/06/07 12:57:04;;;;;;;0.30;0.20;;;19.60;99.90;;;;;;4978341;28;20496;-88
2022/06/07 12:59:36;;;;;;;0.30;0.20;;;19.50;99.90;;;;;;4976751;28;20491;-88
2022/06/07 13:02:12;;;;;;;0.30;0.20;;;19.50;99.90;;;;;;4973566;28;20460;-86
2022/06/07 13:04:46;;;;;;;0.30;0.20;;;19.60;99.90;;;;;;4983886;28;20563;-88
2022/06/07 13:07:20;;;;;;;0.40;0.30;;;19.90;99.90;;;;;;4979038;28;20972;-85
2022/06/07 13:09:53;;;;;;;0.30;0.20;;;20.10;99.90;;;;;;4982092;28;20455;-85
2022/06/07 13:12:28;;;;;;;0.30;0.20;;;20.10;99.90;;;;;;4977933;28;20505;-85
2022/06/07 13:14:55;;;;;;;0.30;0.20;;;20.00;99.90;;;;;;4982593;28;21004;-85
2022/06/07 13:17:32;;;;;;;0.30;0.20;;;20.00;99.90;;;;;;4975628;28;20555;-84
2022/06/07 13:20:00;;;;;;;0.30;0.20;;;20.00;99.90;;;;;;4980609;28;20533;-86
2022/06/07 13:22:29;;;;;;;0.30;0.20;;;20.00;99.90;;;;;;4983148;28;20457;-85
2022/06/07 13:25:16;;;;;;;0.30;0.20;;;19.70;99.90;;;;;;4982832;28;20463;-85
2022/06/07 13:27:47;;;;;;;0.30;0.20;;;19.80;99.90;;;;;;4972383;28;21132;-85
2022/06/07 13:30:35;;;;;;;0.30;0.20;;;19.90;99.90;;;;;;4982450;28;20460;-86
2022/06/07 13:33:19;;;;;;;0.30;0.20;;;19.80;99.90;;;;;;4970154;28;20547;-85